Hyde Park, Indiana
Current Conditions -  °F | °C
As of 3:53 PM on Thursday 20 Nov 2014 (Local Time) from KMIE Reporting Station
Overcast Overcast  
Wind Chill: 13°   Ceiling: 3600
Heat Index: 27°   Visibility: 10mi
Dew Point: 14°   Wind: 21mph
Humidity: 58%   Direction: 270°W
Pressure: 30.1"   Gusts: 29mph
Location:  40.1286°N, 85.3767°W
Report Text: KMIE 202053Z 27018G25KT 10SM OVC036 M03/M10 A3010 RMK AO2 PK WND 27029/1959 SLP202 T10281100 53002
Loading
Personal Weather Stations






























Interactive Weather Map New forecast layout! Learn more

10-Day Weather Forecast

Advertisements
Track Severe Weather on mobile